createdAt,value
2017-09-07T00:02:11.384Z,15.16
2017-09-07T00:04:39.135Z,15.16
2017-09-07T00:07:06.714Z,15.15
2017-09-07T00:09:34.298Z,15.16
2017-09-07T00:12:01.887Z,15.17
2017-09-07T00:14:29.491Z,15.16
2017-09-07T00:16:57.079Z,15.16
2017-09-07T00:19:25.087Z,15.15
2017-09-07T00:21:52.714Z,15.16
2017-09-07T00:24:21.470Z,15.18
2017-09-07T00:26:49.144Z,15.17
2017-09-07T00:29:17.093Z,15.15
2017-09-07T00:31:44.642Z,15.14
2017-09-07T00:34:12.209Z,15.15
2017-09-07T00:36:39.821Z,15.14
2017-09-07T00:39:07.395Z,15.13
2017-09-07T00:41:34.989Z,15.12
2017-09-07T00:44:03.756Z,15.12
2017-09-07T00:46:31.345Z,15.10
2017-09-07T00:48:58.916Z,15.09
2017-09-07T00:51:26.503Z,15.10
2017-09-07T00:53:54.101Z,15.11
2017-09-07T00:56:21.629Z,15.10
2017-09-07T00:58:49.212Z,15.08
2017-09-07T01:01:17.219Z,15.08
2017-09-07T01:03:46.097Z,15.11
2017-09-07T01:06:13.675Z,15.11
2017-09-07T01:08:41.217Z,15.11
2017-09-07T01:11:08.819Z,15.11
2017-09-07T01:13:36.477Z,15.11
2017-09-07T01:16:04.041Z,15.13
2017-09-07T01:18:31.644Z,15.12
2017-09-07T01:20:59.210Z,15.12
2017-09-07T01:23:26.967Z,15.11
2017-09-07T01:25:54.554Z,15.10
2017-09-07T01:28:22.138Z,15.09
2017-09-07T01:30:49.718Z,15.08
2017-09-07T01:33:17.294Z,15.09
2017-09-07T01:35:44.889Z,15.07
2017-09-07T01:38:13.425Z,15.08
2017-09-07T01:40:42.030Z,15.10
2017-09-07T01:43:09.718Z,15.09
2017-09-07T01:45:37.327Z,15.10
2017-09-07T01:48:16.668Z,15.08
2017-09-07T01:50:44.651Z,15.07
2017-09-07T01:53:12.274Z,15.03
2017-09-07T01:55:39.845Z,15.06
2017-09-07T01:58:07.398Z,15.07
2017-09-07T02:00:34.980Z,15.06
2017-09-07T02:03:02.548Z,15.08
2017-09-07T02:05:30.344Z,15.08
2017-09-07T02:07:57.935Z,15.07
2017-09-07T02:10:25.532Z,15.10
2017-09-07T02:12:53.118Z,15.11
2017-09-07T02:15:20.676Z,15.09
2017-09-07T02:17:48.207Z,15.09
2017-09-07T02:20:15.834Z,15.04
2017-09-07T02:22:43.403Z,14.98
2017-09-07T02:25:10.969Z,14.94
2017-09-07T02:27:38.533Z,14.90
2017-09-07T02:30:06.102Z,14.91
2017-09-07T02:32:33.695Z,14.93
2017-09-07T02:35:01.297Z,14.93
2017-09-07T02:37:28.956Z,14.91
2017-09-07T02:39:56.530Z,14.94
2017-09-07T02:42:24.500Z,14.94
2017-09-07T02:44:52.105Z,14.91
2017-09-07T02:47:19.661Z,14.90
2017-09-07T02:49:47.274Z,14.89
2017-09-07T02:52:14.840Z,14.86
2017-09-07T02:54:42.416Z,14.85
2017-09-07T02:57:10.635Z,14.86
2017-09-07T02:59:38.844Z,14.86
2017-09-07T03:02:06.417Z,14.85
2017-09-07T03:04:33.980Z,14.80
2017-09-07T03:07:01.981Z,14.83
2017-09-07T03:09:30.534Z,14.81
2017-09-07T03:11:58.185Z,14.81
2017-09-07T03:14:25.838Z,14.79
2017-09-07T03:16:53.496Z,14.78
2017-09-07T03:19:21.049Z,14.72
2017-09-07T03:21:48.637Z,14.70
2017-09-07T03:24:16.400Z,14.74
2017-09-07T03:26:44.476Z,14.72
2017-09-07T03:29:12.032Z,14.70
2017-09-07T03:31:39.923Z,14.68
2017-09-07T03:34:07.493Z,14.66
2017-09-07T03:36:35.110Z,14.59
2017-09-07T03:39:02.717Z,14.61
2017-09-07T03:41:30.322Z,14.61
2017-09-07T03:43:57.901Z,14.60
2017-09-07T03:46:25.502Z,14.59
2017-09-07T03:48:53.059Z,14.54
2017-09-07T03:51:21.942Z,14.48
2017-09-07T03:53:49.987Z,14.44
2017-09-07T03:56:17.625Z,14.44
2017-09-07T03:58:45.209Z,14.38
2017-09-07T04:01:12.827Z,14.35
2017-09-07T04:03:42.370Z,14.39
2017-09-07T04:06:10.012Z,14.39
2017-09-07T04:08:37.602Z,14.43
2017-09-07T04:11:05.202Z,14.39
2017-09-07T04:13:33.070Z,14.36
2017-09-07T04:16:00.627Z,14.32
2017-09-07T04:18:29.002Z,14.29
2017-09-07T04:20:56.594Z,14.23
2017-09-07T04:23:24.163Z,14.24
2017-09-07T04:25:52.184Z,14.25
2017-09-07T04:28:19.903Z,14.24
2017-09-07T04:30:47.471Z,14.25
2017-09-07T04:33:15.049Z,14.20
2017-09-07T04:35:42.633Z,14.21
2017-09-07T04:38:10.262Z,14.20
2017-09-07T04:40:37.879Z,14.20
2017-09-07T04:43:05.438Z,14.24
2017-09-07T04:45:33.062Z,14.24
2017-09-07T04:48:00.666Z,14.22
2017-09-07T04:50:28.249Z,14.18
2017-09-07T04:52:55.833Z,14.16
2017-09-07T04:55:23.942Z,14.10
2017-09-07T04:57:52.240Z,14.14
2017-09-07T05:00:19.805Z,14.16
2017-09-07T05:02:47.411Z,14.16
2017-09-07T05:05:14.975Z,14.17
2017-09-07T05:07:42.916Z,14.16
2017-09-07T05:10:10.485Z,14.16
2017-09-07T05:12:38.074Z,14.18
2017-09-07T05:15:05.637Z,14.18
2017-09-07T05:17:33.251Z,14.18
2017-09-07T05:20:03.693Z,14.24
2017-09-07T05:22:31.293Z,14.26
2017-09-07T05:24:58.883Z,14.26
2017-09-07T05:27:26.470Z,14.21
2017-09-07T05:29:54.028Z,14.19
2017-09-07T05:32:22.683Z,14.19
2017-09-07T05:34:50.247Z,14.19
2017-09-07T05:37:17.813Z,14.22
2017-09-07T05:39:45.413Z,14.22
2017-09-07T05:42:12.975Z,14.20
2017-09-07T05:44:40.726Z,14.23
2017-09-07T05:47:08.293Z,14.22
2017-09-07T05:49:35.847Z,14.23
2017-09-07T05:54:37.546Z,14.25
2017-09-07T05:57:05.549Z,14.25
2017-09-07T05:59:34.786Z,14.30
2017-09-07T06:02:02.367Z,14.27
2017-09-07T06:04:30.489Z,14.23
2017-09-07T06:06:58.071Z,14.20
2017-09-07T06:09:25.608Z,14.27
2017-09-07T06:11:53.230Z,14.30
2017-09-07T06:14:20.795Z,14.41
2017-09-07T06:16:48.424Z,14.38
2017-09-07T06:19:16.030Z,14.41
2017-09-07T06:21:44.652Z,14.38
2017-09-07T06:24:12.399Z,14.45
2017-09-07T06:26:40.171Z,14.51
2017-09-07T06:29:07.754Z,14.51
2017-09-07T06:31:35.369Z,14.57
2017-09-07T06:34:03.056Z,14.62
2017-09-07T06:36:30.619Z,14.66
2017-09-07T06:38:58.188Z,14.66
2017-09-07T06:41:25.731Z,14.67
2017-09-07T06:43:53.300Z,14.72
2017-09-07T06:46:20.855Z,14.75
2017-09-07T06:48:48.434Z,14.81
2017-09-07T06:51:16.010Z,14.85
2017-09-07T06:53:43.593Z,14.93
2017-09-07T06:56:11.161Z,15.00
2017-09-07T06:58:38.745Z,15.02
2017-09-07T07:01:06.326Z,15.01
2017-09-07T07:03:34.088Z,15.03
2017-09-07T07:06:02.425Z,15.11
2017-09-07T07:08:29.989Z,15.08
2017-09-07T07:10:57.563Z,15.03
2017-09-07T07:13:25.135Z,15.03
2017-09-07T07:15:52.724Z,15.07
2017-09-07T07:18:20.290Z,15.03
2017-09-07T07:20:47.961Z,15.12
2017-09-07T07:23:15.547Z,15.25
2017-09-07T07:25:43.128Z,15.39
2017-09-07T07:28:10.733Z,15.54
2017-09-07T07:30:38.305Z,15.67
2017-09-07T07:33:05.849Z,15.81
2017-09-07T07:35:33.448Z,15.87
2017-09-07T07:38:01.011Z,15.89
2017-09-07T07:40:28.588Z,15.90
2017-09-07T07:42:56.228Z,15.80
2017-09-07T07:45:23.796Z,15.97
2017-09-07T07:47:51.370Z,16.20
2017-09-07T07:50:18.942Z,16.43
2017-09-07T07:52:46.495Z,16.66
2017-09-07T07:55:14.070Z,16.67
2017-09-07T07:57:41.638Z,16.65
2017-09-07T08:00:09.229Z,16.44
2017-09-07T08:02:36.797Z,16.40
2017-09-07T08:05:04.376Z,16.40
2017-09-07T08:07:31.955Z,16.30
2017-09-07T08:09:59.585Z,16.38
2017-09-07T08:12:27.158Z,16.56
2017-09-07T08:14:54.798Z,16.64
2017-09-07T08:17:22.359Z,16.78
2017-09-07T08:19:49.970Z,16.84
2017-09-07T08:22:17.554Z,16.84
2017-09-07T08:24:45.129Z,16.89
2017-09-07T08:27:12.729Z,16.99
2017-09-07T08:29:40.314Z,16.97
2017-09-07T08:32:07.889Z,16.84
2017-09-07T08:34:35.490Z,16.84
2017-09-07T08:37:03.065Z,16.95
2017-09-07T08:39:30.660Z,17.12
2017-09-07T08:41:58.209Z,17.18
2017-09-07T08:44:25.847Z,17.10
2017-09-07T08:46:53.501Z,17.04
2017-09-07T08:49:21.242Z,17.15
2017-09-07T08:51:48.906Z,17.24
2017-09-07T08:54:16.493Z,17.26
2017-09-07T08:56:44.053Z,17.29
2017-09-07T08:59:13.333Z,17.32
2017-09-07T09:01:40.906Z,17.46
2017-09-07T09:04:08.486Z,17.59
2017-09-07T09:06:36.066Z,17.74
2017-09-07T09:09:03.641Z,17.78
2017-09-07T09:11:31.230Z,17.81
2017-09-07T09:13:58.790Z,17.84
2017-09-07T09:16:26.386Z,17.83
2017-09-07T09:18:53.990Z,17.91
2017-09-07T09:21:21.599Z,17.90
2017-09-07T09:23:49.126Z,17.93
2017-09-07T09:26:16.773Z,17.94
2017-09-07T09:28:44.340Z,17.94
2017-09-07T09:31:11.935Z,17.99
2017-09-07T09:33:39.500Z,18.11
2017-09-07T09:36:07.236Z,18.21
2017-09-07T09:38:34.819Z,18.15
2017-09-07T09:41:02.386Z,18.06
2017-09-07T09:43:29.946Z,18.08
2017-09-07T09:45:57.564Z,17.90
2017-09-07T09:48:25.149Z,17.88
2017-09-07T09:50:53.631Z,18.01
2017-09-07T09:53:21.208Z,18.21
2017-09-07T09:55:48.845Z,18.29
2017-09-07T09:58:16.416Z,18.38
2017-09-07T10:00:44.027Z,18.63
2017-09-07T10:03:11.683Z,18.86
2017-09-07T10:05:40.844Z,18.87
2017-09-07T10:08:08.396Z,18.80
2017-09-07T10:10:36.001Z,18.74
2017-09-07T10:13:03.614Z,19.03
2017-09-07T10:15:31.650Z,19.02
2017-09-07T10:18:00.634Z,19.05
2017-09-07T10:20:29.370Z,19.11
2017-09-07T10:22:56.947Z,19.16
2017-09-07T10:25:24.550Z,19.21
2017-09-07T10:27:52.125Z,19.24
2017-09-07T10:30:20.072Z,19.36
2017-09-07T10:32:47.691Z,19.15
2017-09-07T10:35:15.243Z,18.99
2017-09-07T10:37:42.819Z,18.89
2017-09-07T10:40:10.420Z,18.96
2017-09-07T10:42:38.018Z,19.00
2017-09-07T10:45:05.585Z,19.08
2017-09-07T10:47:33.150Z,19.05
2017-09-07T10:50:00.754Z,19.00
2017-09-07T10:52:28.346Z,19.27
2017-09-07T10:54:55.974Z,19.41
2017-09-07T10:57:23.553Z,19.40
2017-09-07T10:59:51.140Z,19.44
2017-09-07T11:02:18.704Z,19.49
2017-09-07T11:04:46.282Z,19.39
2017-09-07T11:07:13.863Z,19.47
2017-09-07T11:09:41.554Z,19.43
2017-09-07T11:12:09.204Z,19.40
2017-09-07T11:14:36.788Z,19.39
2017-09-07T11:17:04.402Z,19.40
2017-09-07T11:19:31.960Z,19.42
2017-09-07T11:21:59.585Z,19.36
2017-09-07T11:24:27.105Z,19.37
2017-09-07T11:26:54.748Z,19.43
2017-09-07T11:29:22.308Z,19.37
2017-09-07T11:31:49.943Z,19.40
2017-09-07T11:34:17.504Z,19.33
2017-09-07T11:36:45.117Z,19.39
2017-09-07T11:39:12.685Z,19.28
2017-09-07T11:41:40.338Z,19.28
2017-09-07T11:44:07.891Z,19.22
2017-09-07T11:46:35.483Z,19.27
2017-09-07T11:49:03.051Z,19.22
2017-09-07T11:51:30.632Z,19.20
2017-09-07T11:53:58.189Z,19.34
2017-09-07T11:56:25.778Z,19.37
2017-09-07T11:58:53.411Z,19.49
2017-09-07T12:01:20.997Z,19.64
2017-09-07T12:03:48.583Z,19.72
2017-09-07T12:06:16.164Z,19.90
2017-09-07T12:08:43.744Z,20.13
2017-09-07T12:11:11.329Z,20.31
2017-09-07T12:13:38.936Z,20.25
2017-09-07T12:16:06.506Z,20.15
2017-09-07T12:18:34.096Z,19.85
2017-09-07T12:21:01.742Z,19.70
2017-09-07T12:23:29.346Z,19.35
2017-09-07T12:25:56.914Z,19.13
2017-09-07T12:28:24.504Z,19.16
2017-09-07T12:30:53.796Z,19.31
2017-09-07T12:33:21.363Z,19.37
2017-09-07T12:35:50.118Z,19.64
2017-09-07T12:38:17.715Z,19.79
2017-09-07T12:40:45.262Z,19.73
2017-09-07T12:43:13.035Z,19.74
2017-09-07T12:45:40.593Z,19.66
2017-09-07T12:48:08.168Z,19.53
2017-09-07T12:50:35.756Z,19.60
2017-09-07T12:53:03.356Z,19.64
2017-09-07T12:55:30.969Z,19.53
2017-09-07T12:57:58.544Z,19.49
2017-09-07T13:00:26.224Z,19.38
2017-09-07T13:02:53.792Z,19.33
2017-09-07T13:05:21.427Z,19.24
2017-09-07T13:07:49.007Z,19.36
2017-09-07T13:10:16.570Z,19.65
2017-09-07T13:12:44.170Z,19.93
2017-09-07T13:15:11.911Z,20.14
2017-09-07T13:17:39.502Z,20.21
2017-09-07T13:20:07.158Z,20.15
2017-09-07T13:22:34.742Z,20.16
2017-09-07T13:25:02.282Z,20.16
2017-09-07T13:27:29.872Z,20.22
2017-09-07T13:29:57.456Z,20.20
2017-09-07T13:32:25.042Z,20.17
2017-09-07T13:34:52.660Z,20.00
2017-09-07T13:37:20.253Z,19.74
2017-09-07T13:39:47.875Z,19.58
2017-09-07T13:42:15.426Z,19.54
2017-09-07T13:44:43.145Z,19.69
2017-09-07T13:47:10.736Z,19.86
2017-09-07T13:49:38.319Z,19.96
2017-09-07T13:52:05.968Z,20.08
2017-09-07T13:54:35.699Z,20.14
2017-09-07T13:57:03.372Z,20.15
2017-09-07T13:59:30.959Z,20.26
2017-09-07T14:01:58.519Z,20.57
2017-09-07T14:04:26.125Z,20.77
2017-09-07T14:06:53.972Z,21.01
2017-09-07T14:09:21.575Z,21.17
2017-09-07T14:11:49.368Z,21.24
2017-09-07T14:14:17.112Z,21.30
2017-09-07T14:16:44.688Z,21.36
2017-09-07T14:19:12.295Z,21.27
2017-09-07T14:21:39.921Z,21.04
2017-09-07T14:24:07.531Z,21.20
2017-09-07T14:26:35.290Z,21.42
2017-09-07T14:29:02.889Z,21.48
2017-09-07T14:31:30.458Z,21.42
2017-09-07T14:33:58.086Z,21.58
2017-09-07T14:36:25.675Z,21.85
2017-09-07T14:38:53.306Z,22.00
2017-09-07T14:41:20.909Z,22.28
2017-09-07T14:43:48.496Z,21.77
2017-09-07T14:46:16.059Z,21.51
2017-09-07T14:48:43.658Z,21.73
2017-09-07T14:51:11.416Z,22.31
2017-09-07T14:53:39.003Z,22.64
2017-09-07T14:56:07.860Z,22.72
2017-09-07T14:58:35.488Z,22.47
2017-09-07T15:01:03.076Z,22.44
2017-09-07T15:03:30.694Z,22.61
2017-09-07T15:05:58.267Z,22.77
2017-09-07T15:08:25.916Z,23.02
2017-09-07T15:10:53.569Z,22.78
2017-09-07T15:13:21.172Z,22.70
2017-09-07T15:15:48.786Z,22.86
2017-09-07T15:18:16.378Z,22.71
2017-09-07T15:20:43.988Z,22.22
2017-09-07T15:23:11.571Z,21.77
2017-09-07T15:25:39.141Z,21.80
2017-09-07T15:28:06.700Z,21.93
2017-09-07T15:30:34.292Z,22.00
2017-09-07T15:33:01.825Z,22.01
2017-09-07T15:35:29.492Z,21.89
2017-09-07T15:37:57.107Z,21.62
2017-09-07T15:40:25.602Z,21.40
2017-09-07T15:42:53.183Z,21.24
2017-09-07T15:45:20.767Z,20.97
2017-09-07T15:47:48.784Z,20.90
2017-09-07T15:50:16.377Z,20.81
2017-09-07T15:52:44.037Z,20.61
2017-09-07T15:55:11.601Z,20.43
2017-09-07T15:57:40.646Z,20.29
2017-09-07T16:00:08.259Z,20.16
2017-09-07T16:02:35.819Z,20.08
2017-09-07T16:05:03.390Z,19.97
2017-09-07T16:07:30.967Z,19.87
2017-09-07T16:09:58.563Z,19.75
2017-09-07T16:12:26.203Z,19.67
2017-09-07T16:14:53.792Z,19.53
2017-09-07T16:17:21.538Z,19.33
2017-09-07T16:19:49.141Z,19.16
2017-09-07T16:22:16.761Z,19.03
2017-09-07T16:24:44.798Z,19.04
2017-09-07T16:27:12.366Z,19.02
2017-09-07T16:29:39.940Z,18.91
2017-09-07T16:32:07.530Z,18.89
2017-09-07T16:34:36.384Z,18.89
2017-09-07T16:37:04.012Z,18.88
2017-09-07T16:39:31.599Z,18.83
2017-09-07T16:41:59.285Z,18.67
2017-09-07T16:44:26.862Z,18.58
2017-09-07T16:46:54.769Z,18.56
2017-09-07T16:49:22.323Z,18.50
2017-09-07T16:51:49.909Z,18.39
2017-09-07T16:54:17.590Z,18.36
2017-09-07T16:56:45.279Z,18.34
2017-09-07T16:59:13.202Z,18.31
2017-09-07T17:01:40.906Z,18.24
2017-09-07T17:04:08.510Z,18.17
2017-09-07T17:06:36.094Z,18.14
2017-09-07T17:09:03.680Z,18.13
2017-09-07T17:11:32.581Z,18.08
2017-09-07T17:14:00.312Z,18.02
2017-09-07T17:16:27.910Z,17.94
2017-09-07T17:18:55.749Z,17.89
2017-09-07T17:21:23.338Z,17.85
2017-09-07T17:24:25.912Z,17.78
2017-09-07T17:26:53.546Z,17.71
2017-09-07T17:29:21.408Z,17.66
2017-09-07T17:31:50.386Z,17.57
2017-09-07T17:34:17.938Z,17.50
2017-09-07T17:36:45.535Z,17.44
2017-09-07T17:39:13.774Z,17.39
2017-09-07T17:41:41.472Z,17.31
2017-09-07T17:44:09.045Z,17.24
2017-09-07T17:46:36.657Z,17.17
2017-09-07T17:49:04.240Z,17.11
2017-09-07T17:51:31.915Z,17.06
2017-09-07T17:53:59.482Z,16.97
2017-09-07T17:56:27.301Z,16.94
2017-09-07T17:58:54.882Z,16.89
2017-09-07T18:01:22.460Z,16.83
2017-09-07T18:03:50.034Z,16.78
2017-09-07T18:06:17.607Z,16.73
2017-09-07T18:08:45.185Z,16.67
2017-09-07T18:11:12.770Z,16.60
2017-09-07T18:13:40.370Z,16.51
2017-09-07T18:16:07.944Z,16.46
2017-09-07T18:18:35.513Z,16.39
2017-09-07T18:21:03.121Z,16.32
2017-09-07T18:23:30.719Z,16.28
2017-09-07T18:25:58.293Z,16.23
2017-09-07T18:28:25.884Z,16.19
2017-09-07T18:30:53.445Z,16.12
2017-09-07T18:33:21.045Z,16.07
2017-09-07T18:35:48.605Z,16.01
2017-09-07T18:38:16.565Z,16.00
2017-09-07T18:40:45.381Z,15.96
2017-09-07T18:43:12.993Z,15.91
2017-09-07T18:45:40.587Z,15.88
2017-09-07T18:48:08.216Z,15.82
2017-09-07T18:50:35.776Z,15.76
2017-09-07T18:53:03.388Z,15.70
2017-09-07T18:55:30.975Z,15.64
2017-09-07T18:57:58.552Z,15.58
2017-09-07T19:00:26.149Z,15.43
2017-09-07T19:02:54.384Z,15.34
2017-09-07T19:05:22.115Z,15.26
2017-09-07T19:07:49.698Z,15.04
2017-09-07T19:10:17.331Z,15.05
2017-09-07T19:12:44.960Z,14.92
2017-09-07T19:15:12.534Z,14.79
2017-09-07T19:17:40.199Z,14.74
2017-09-07T19:20:07.840Z,14.75
2017-09-07T19:22:35.515Z,14.77
2017-09-07T19:25:03.129Z,14.77
2017-09-07T19:27:30.694Z,14.79
2017-09-07T19:29:58.298Z,14.79
2017-09-07T19:32:25.858Z,14.77
2017-09-07T19:34:53.467Z,14.72
2017-09-07T19:37:21.202Z,14.72
2017-09-07T19:39:48.766Z,14.69
2017-09-07T19:42:16.474Z,14.68
2017-09-07T19:44:44.087Z,14.69
2017-09-07T19:47:11.757Z,14.68
2017-09-07T19:49:39.453Z,14.66
2017-09-07T19:52:07.101Z,14.65
2017-09-07T19:54:34.803Z,14.62
2017-09-07T19:57:02.388Z,14.59
2017-09-07T19:59:30.085Z,14.55
2017-09-07T20:01:57.690Z,14.49
2017-09-07T20:04:25.763Z,14.43
2017-09-07T20:06:53.446Z,14.43
2017-09-07T20:09:21.032Z,14.37
2017-09-07T20:11:48.667Z,14.31
2017-09-07T20:14:16.275Z,14.21
2017-09-07T20:16:43.860Z,14.18
2017-09-07T20:19:11.445Z,14.16
2017-09-07T20:21:39.032Z,14.10
2017-09-07T20:24:06.625Z,14.08
2017-09-07T20:26:34.373Z,14.08
2017-09-07T20:29:01.944Z,14.10
2017-09-07T20:31:29.527Z,14.14
2017-09-07T20:33:57.154Z,14.15
2017-09-07T20:36:24.764Z,14.18
2017-09-07T20:38:52.386Z,14.16
2017-09-07T20:41:19.952Z,14.16
2017-09-07T20:43:47.557Z,14.12
2017-09-07T20:46:15.126Z,14.15
2017-09-07T20:48:43.140Z,14.18
2017-09-07T20:51:10.879Z,14.22
2017-09-07T20:53:38.543Z,14.19
2017-09-07T20:56:06.139Z,14.23
2017-09-07T20:58:33.721Z,14.25
2017-09-07T21:01:01.320Z,14.25
2017-09-07T21:03:28.990Z,14.22
2017-09-07T21:05:56.576Z,14.25
2017-09-07T21:08:25.095Z,14.27
2017-09-07T21:10:52.714Z,14.29
2017-09-07T21:13:20.296Z,14.31
2017-09-07T21:15:47.898Z,14.33
2017-09-07T21:18:15.456Z,14.36
2017-09-07T21:20:43.048Z,14.40
2017-09-07T21:23:10.623Z,14.42
2017-09-07T21:25:38.234Z,14.45
2017-09-07T21:28:05.810Z,14.46
2017-09-07T21:30:33.402Z,14.47
2017-09-07T21:33:00.991Z,14.48
2017-09-07T21:35:28.567Z,14.50
2017-09-07T21:37:56.155Z,14.51
2017-09-07T21:40:23.773Z,14.50
2017-09-07T21:42:51.368Z,14.51
2017-09-07T21:45:18.949Z,14.53
2017-09-07T21:47:46.665Z,14.53
2017-09-07T21:50:14.266Z,14.47
2017-09-07T21:52:41.826Z,14.42
2017-09-07T21:55:09.422Z,14.42
2017-09-07T21:57:37.026Z,14.42
2017-09-07T22:00:04.755Z,14.44
2017-09-07T22:02:32.330Z,14.40
2017-09-07T22:04:59.933Z,14.35
2017-09-07T22:07:27.489Z,14.37
2017-09-07T22:09:55.695Z,14.36
2017-09-07T22:12:23.260Z,14.36
2017-09-07T22:14:50.867Z,14.36
2017-09-07T22:17:18.424Z,14.38
2017-09-07T22:19:46.085Z,14.35
2017-09-07T22:22:13.678Z,14.36
2017-09-07T22:24:41.408Z,14.39
2017-09-07T22:27:08.988Z,14.42
2017-09-07T22:29:36.529Z,14.41
2017-09-07T22:32:04.147Z,14.39
2017-09-07T22:34:31.699Z,14.41
2017-09-07T22:36:59.303Z,14.39
2017-09-07T22:39:26.887Z,14.38
2017-09-07T22:41:54.488Z,14.37
2017-09-07T22:44:22.028Z,14.34
2017-09-07T22:46:49.573Z,14.33
2017-09-07T22:49:17.139Z,14.34
2017-09-07T22:51:44.724Z,14.30
2017-09-07T22:54:12.301Z,14.28
2017-09-07T22:56:39.994Z,14.25
2017-09-07T22:59:07.616Z,14.26
2017-09-07T23:01:36.811Z,14.25
2017-09-07T23:04:05.832Z,14.23
2017-09-07T23:06:33.415Z,14.23
2017-09-07T23:09:00.967Z,14.23
2017-09-07T23:11:28.528Z,14.22
2017-09-07T23:13:56.125Z,14.22
2017-09-07T23:16:23.702Z,14.24
2017-09-07T23:18:51.613Z,14.22
2017-09-07T23:21:19.172Z,14.19
2017-09-07T23:23:46.791Z,14.15
2017-09-07T23:26:14.438Z,14.11
2017-09-07T23:28:42.029Z,14.08
2017-09-07T23:31:09.647Z,14.07
2017-09-07T23:33:37.215Z,14.03
2017-09-07T23:36:05.145Z,13.99
2017-09-07T23:38:32.713Z,13.96
2017-09-07T23:41:00.405Z,13.96
2017-09-07T23:43:28.160Z,13.93
2017-09-07T23:45:55.721Z,13.92
2017-09-07T23:48:23.336Z,13.92
2017-09-07T23:50:50.918Z,13.91
2017-09-07T23:53:18.730Z,13.91
2017-09-07T23:55:46.290Z,13.90
2017-09-07T23:58:13.852Z,13.89
